Detall de PIREP

Printer-friendly versionPDF version

[2016/01/02 10:28:00]
Flight IATA:CT1004
Pilot Number:012
Company ICAO:CAT
Aircraft Type:B738/F
PAX:148
Departing Airport: LIEA
Destination Airport: LWSK
Alternate Airport:LBSF
Online: VATSIM
Route:KOLUS UM603 BRD UP92 PAPIZ UT214 DOBAR UT216 PEP
Flight Level:F340
No Slew and time accel
No pause
Crash detect
Detect pilot in Cockpit between each 30 and 45 minutes
10:28 Zero fuel Weight: 123465 Lbs, Fuel Weight: 16567 Lbs
10:28 VATSIM:LIEA 020950Z 19015KT 9999 FEW008 SCT013 BKN035 16/14 Q1018
10:28 VATSIM:LWSK 021000Z VRB01KT CAVOK M01/M10 Q1025 NOSIG
10:28 X-MAS CHARTER
10:37 Parking Brakes off
10:41 Take-off
10:41 Take off Weight: 139433 Lbs
10:41 Wind: 188º @ 015 Knots Heading: 205º
10:41 POS N40º 37´ 49´´ E008º 17´ 23´´
10:41 Gear Up: 157 Knots
10:41 Flaps:3 at 157 Knots
10:41 Flaps:2 at 184 Knots
10:42 Flaps:1 at 208 Knots
10:46 Flaps:0 at 245 Knots
10:56 Wind:264º@061 Knots Heading: 085º Ground Speed: 528 Knots Altitude 29468 ft
10:59 TOC
10:59 Fuel Weight: 12311 Lb
11:11 Wind:270º@062 Knots Heading: 087º Ground Speed: 523 Knots Altitude 34199 ft
11:26 Wind:283º@062 Knots Heading: 087º Ground Speed: 522 Knots Altitude 34225 ft
11:41 Wind:295º@064 Knots Heading: 068º Ground Speed: 506 Knots Altitude 34265 ft
11:47 TOD
11:47 Fuel Weight: 7633 Lb
11:56 Wind:317º@051 Knots Heading: 083º Ground Speed: 405 Knots Altitude 15410 ft
12:00 Flaps:1 at 247 Knots
12:00 Flaps:2 at 233 Knots
12:00 Flaps:3 at 225 Knots
12:01 Gear Down: 200 Knots
12:03 Flaps:4 at 168 Knots
12:11 Wind:064º@000 Knots Heading: 345º Ground Speed: 184 Knots Altitude 3572 ft
12:11 Flaps:5 at 180 Knots
12:11 Flaps:6 at 162 Knots
12:11 Flaps:7 at 139 Knots
12:11 Flaps:8 at 138 Knots
12:15 TouchDown:Rate -449 ft/min Speed: 108 Knots
12:15 VATSIM:LWSK 021200Z VRB01KT CAVOK 03/M09 Q1023 NOSIG
12:15 Land
12:15 Wind:040º@000 Knots
12:15 Heading: 345º
12:15 Flight Duration: 01:34
12:15 Landing Weight: 128932 Lbs
12:15 POS N41º 57´ 35´´ E021º 37´ 19´´
12:17 Parking brakes on
12:17 Block to Block Duration: 01:40
12:17 Final Fuel: 5304 Lbls
12:17 Spent Fuel: 11263 Lbls
12:17 Flight Length: 670 NM
12:17 TOD Land Length: 134 NM

Exportar CSV

Powered by Drupal - Modified by Danger4k